createdAt,value
2017-04-18T00:00:17.809Z,94.7
2017-04-18T00:01:17.781Z,94.51
2017-04-18T00:02:17.760Z,94.7
2017-04-18T00:03:17.729Z,94.89
2017-04-18T00:04:17.961Z,94.7
2017-04-18T00:05:17.684Z,95.36
2017-04-18T00:06:17.656Z,94.89
2017-04-18T00:07:17.628Z,95.5
2017-04-18T00:08:17.607Z,95.12
2017-04-18T00:09:17.579Z,95.31
2017-04-18T00:10:17.549Z,95.69
2017-04-18T00:11:17.526Z,95.69
2017-04-18T00:12:17.504Z,96.07
2017-04-18T00:13:17.473Z,95.79
2017-04-18T00:14:17.451Z,95.5
2017-04-18T00:15:17.419Z,96.07
2017-04-18T00:16:17.397Z,95.5
2017-04-18T00:17:17.442Z,95.69
2017-04-18T00:18:17.338Z,95.5
2017-04-18T00:19:17.315Z,95.22
2017-04-18T00:20:17.294Z,95.41
2017-04-18T00:21:17.265Z,95.5
2017-04-18T00:22:17.238Z,95.88
2017-04-18T00:23:17.264Z,95.69
2017-04-18T00:24:17.183Z,95.69
2017-04-18T00:25:17.160Z,96.17
2017-04-18T00:26:17.129Z,95.6
2017-04-18T00:27:17.110Z,96.36
2017-04-18T00:28:17.075Z,95.98
2017-04-18T00:29:17.055Z,95.98
2017-04-18T00:30:17.027Z,96.36
2017-04-18T00:31:16.996Z,96.17
2017-04-18T00:32:16.977Z,96.26
2017-04-18T00:33:16.951Z,96.17
2017-04-18T00:34:16.923Z,96.73
2017-04-18T00:35:16.899Z,96.97
2017-04-18T00:36:16.872Z,96.97
2017-04-18T00:37:16.845Z,97.16
2017-04-18T00:38:16.833Z,96.31
2017-04-18T00:39:16.797Z,95.17
2017-04-18T00:40:16.772Z,94.98
2017-04-18T00:41:16.751Z,94.7
2017-04-18T00:42:16.719Z,94.32
2017-04-18T00:43:16.690Z,94.32
2017-04-18T00:44:16.659Z,93.94
2017-04-18T00:45:16.635Z,94.23
2017-04-18T00:46:16.608Z,94.23
2017-04-18T00:47:16.583Z,94.6
2017-04-18T00:48:16.558Z,94.32
2017-04-18T00:49:16.532Z,94.32
2017-04-18T00:50:16.505Z,93.84
2017-04-18T00:51:16.486Z,94.32
2017-04-18T00:52:16.457Z,94.18
2017-04-18T00:53:16.428Z,93.41
2017-04-18T00:54:16.405Z,93.13
2017-04-18T00:55:16.384Z,93.04
2017-04-18T00:56:16.352Z,92.76
2017-04-18T00:57:16.321Z,93.04
2017-04-18T00:58:16.302Z,92.76
2017-04-18T00:59:16.271Z,92.8
2017-04-18T01:00:16.245Z,92.9
2017-04-18T01:01:16.218Z,92.38
2017-04-18T01:02:16.197Z,92.8
2017-04-18T01:03:16.174Z,92.71
2017-04-18T01:04:16.145Z,92.8
2017-04-18T01:05:16.125Z,92.8
2017-04-18T01:06:16.099Z,93.37
2017-04-18T01:07:16.073Z,93.08
2017-04-18T01:08:16.043Z,93.89
2017-04-18T01:09:16.021Z,93.8
2017-04-18T01:10:15.693Z,93.8
2017-04-18T01:11:15.968Z,94.46
2017-04-18T01:12:15.955Z,94.08
2017-04-18T01:13:15.914Z,94.84
2017-04-18T01:14:15.890Z,94.65
2017-04-18T01:15:15.865Z,94.74
2017-04-18T01:16:15.833Z,95.12
2017-04-18T01:17:15.815Z,95.03
2017-04-18T01:18:15.784Z,94.56
2017-04-18T01:19:15.758Z,95.31
2017-04-18T01:20:15.733Z,95.69
2017-04-18T01:21:15.706Z,95.6
2017-04-18T01:22:15.677Z,95.69
2017-04-18T01:23:15.657Z,95.6
2017-04-18T01:24:15.628Z,95.79
2017-04-18T01:25:15.995Z,95.98
2017-04-18T01:26:15.579Z,96.26
2017-04-18T01:27:15.597Z,96.17
2017-04-18T01:28:15.523Z,96.55
2017-04-18T01:29:15.492Z,96.55
2017-04-18T01:30:15.561Z,96.17
2017-04-18T01:31:15.647Z,96.07
2017-04-18T01:32:15.418Z,95.98
2017-04-18T01:33:16.695Z,95.98
2017-04-18T01:34:15.364Z,96.55
2017-04-18T01:35:15.338Z,96.83
2017-04-18T01:36:15.315Z,97.21
2017-04-18T01:37:15.300Z,97.21
2017-04-18T01:38:15.267Z,96.92
2017-04-18T01:39:15.241Z,96.92
2017-04-18T01:40:15.209Z,96.92
2017-04-18T01:41:15.187Z,97.11
2017-04-18T01:42:15.211Z,97.68
2017-04-18T01:43:15.131Z,97.11
2017-04-18T01:44:15.104Z,97.49
2017-04-18T01:45:15.087Z,96.92
2017-04-18T01:46:15.060Z,97.21
2017-04-18T01:47:15.074Z,96.92
2017-04-18T01:48:15.302Z,97.02
2017-04-18T01:49:14.979Z,97.11
2017-04-18T01:50:14.946Z,97.11
2017-04-18T01:51:14.923Z,97.11
2017-04-18T01:52:16.298Z,97.4
2017-04-18T01:53:14.875Z,97.4
2017-04-18T01:54:14.843Z,97.49
2017-04-18T01:55:14.833Z,97.49
2017-04-18T01:56:14.792Z,97.49
2017-04-18T01:57:14.770Z,98.06
2017-04-18T01:58:14.736Z,97.59
2017-04-18T01:59:14.712Z,97.3
2017-04-18T02:00:14.694Z,97.87
2017-04-18T02:01:14.667Z,97.49
2017-04-18T02:02:14.639Z,97.68
2017-04-18T02:03:14.619Z,97.59
2017-04-18T02:04:14.584Z,97.4
2017-04-18T02:05:14.608Z,97.21
2017-04-18T02:06:14.526Z,97.4
2017-04-18T02:07:14.500Z,97.49
2017-04-18T02:08:14.490Z,97.68
2017-04-18T02:09:14.459Z,97.59
2017-04-18T02:10:14.425Z,97.49
2017-04-18T02:11:14.400Z,97.49
2017-04-18T02:12:14.374Z,97.49
2017-04-18T02:13:14.349Z,97.68
2017-04-18T02:14:15.517Z,97.49
2017-04-18T02:15:14.297Z,97.49
2017-04-18T02:16:14.269Z,97.68
2017-04-18T02:17:14.290Z,97.49
2017-04-18T02:18:14.212Z,97.49
2017-04-18T02:19:14.185Z,97.06
2017-04-18T02:20:14.159Z,97.59
2017-04-18T02:21:14.134Z,97.59
2017-04-18T02:22:14.109Z,97.49
2017-04-18T02:23:14.082Z,97.44
2017-04-18T02:24:14.056Z,97.44
2017-04-18T02:25:14.028Z,97.73
2017-04-18T02:26:14.609Z,97.87
2017-04-18T02:27:13.979Z,97.97
2017-04-18T02:28:13.954Z,97.87
2017-04-18T02:29:13.929Z,97.87
2017-04-18T02:30:13.598Z,97.87
2017-04-18T02:31:13.869Z,98.01
2017-04-18T02:32:13.543Z,97.3
2017-04-18T02:33:13.822Z,97.78
2017-04-18T02:34:13.800Z,97.59
2017-04-18T02:35:13.763Z,97.59
2017-04-18T02:36:13.441Z,97.49
2017-04-18T02:37:13.713Z,97.68
2017-04-18T02:38:13.396Z,97.68
2017-04-18T02:39:13.660Z,98.06
2017-04-18T02:40:13.635Z,97.87
2017-04-18T02:41:13.632Z,97.49
2017-04-18T02:42:13.590Z,98.06
2017-04-18T02:43:13.555Z,97.68
2017-04-18T02:44:13.527Z,97.49
2017-04-18T02:45:13.506Z,97.68
2017-04-18T02:46:13.472Z,97.87
2017-04-18T02:47:13.450Z,98.06
2017-04-18T02:48:13.420Z,97.49
2017-04-18T02:49:13.402Z,97.49
2017-04-18T02:50:13.367Z,98.06
2017-04-18T02:51:13.342Z,97.87
2017-04-18T02:52:13.326Z,97.87
2017-04-18T02:53:13.294Z,97.68
2017-04-18T02:54:13.265Z,97.73
2017-04-18T02:55:13.239Z,97.68
2017-04-18T02:56:13.208Z,97.87
2017-04-18T02:57:13.180Z,97.49
2017-04-18T02:58:13.155Z,97.87
2017-04-18T02:59:13.130Z,97.49
2017-04-18T03:00:13.159Z,97.97
2017-04-18T03:01:13.081Z,97.92
2017-04-18T03:02:13.049Z,97.49
2017-04-18T03:03:13.021Z,97.87
2017-04-18T03:04:13.002Z,97.82
2017-04-18T03:05:12.971Z,97.78
2017-04-18T03:06:12.946Z,97.82
2017-04-18T03:07:12.913Z,97.16
2017-04-18T03:08:12.894Z,97.87
2017-04-18T03:09:12.870Z,97.68
2017-04-18T03:10:12.839Z,97.73
2017-04-18T03:11:12.826Z,97.4
2017-04-18T03:12:12.786Z,97.44
2017-04-18T03:13:12.762Z,97.73
2017-04-18T03:14:12.738Z,98.01
2017-04-18T03:15:12.708Z,97.92
2017-04-18T03:16:12.682Z,97.82
2017-04-18T03:17:12.705Z,97.25
2017-04-18T03:18:12.631Z,97.63
2017-04-18T03:19:12.604Z,97.54
2017-04-18T03:20:12.582Z,97.82
2017-04-18T03:21:12.550Z,97.35
2017-04-18T03:22:12.524Z,97.44
2017-04-18T03:23:12.497Z,97.92
2017-04-18T03:24:12.473Z,97.63
2017-04-18T03:25:12.442Z,97.25
2017-04-18T03:26:12.427Z,97.54
2017-04-18T03:27:12.387Z,97.63
2017-04-18T03:28:12.416Z,97.92
2017-04-18T03:29:12.338Z,97.82
2017-04-18T03:30:12.312Z,97.73
2017-04-18T03:31:12.284Z,98.77
2017-04-18T03:32:12.264Z,98.3
2017-04-18T03:33:12.235Z,98.77
2017-04-18T03:34:12.208Z,98.3
2017-04-18T03:35:12.181Z,98.01
2017-04-18T03:36:12.153Z,98.58
2017-04-18T03:37:12.218Z,98.58
2017-04-18T03:38:12.102Z,98.3
2017-04-18T03:39:12.078Z,98.58
2017-04-18T03:40:12.051Z,98.39
2017-04-18T03:41:12.025Z,98.3
2017-04-18T03:42:11.992Z,98.01
2017-04-18T03:43:11.965Z,98.39
2017-04-18T03:44:11.648Z,98.2
2017-04-18T03:45:11.914Z,98.49
2017-04-18T03:46:11.888Z,98.49
2017-04-18T03:47:11.862Z,98.44
2017-04-18T03:48:11.835Z,98.58
2017-04-18T03:49:11.815Z,98.58
2017-04-18T03:50:11.782Z,98.2
2017-04-18T03:51:11.753Z,98.2
2017-04-18T03:52:11.726Z,98.3
2017-04-18T03:53:11.705Z,98.86
2017-04-18T03:54:11.673Z,98.53
2017-04-18T03:55:11.648Z,98.53
2017-04-18T03:56:11.631Z,98.63
2017-04-18T03:57:11.593Z,98.53
2017-04-18T03:58:11.565Z,98.53
2017-04-18T03:59:11.545Z,98.82
2017-04-18T04:00:12.860Z,99.19
2017-04-18T04:01:11.488Z,98.72
2017-04-18T04:02:11.467Z,99.19
2017-04-18T04:03:11.433Z,99.1
2017-04-18T04:04:11.414Z,99.01
2017-04-18T04:05:11.384Z,99.19
2017-04-18T04:06:11.355Z,99.01
2017-04-18T04:07:11.325Z,98.63
2017-04-18T04:08:11.302Z,98.63
2017-04-18T04:09:11.273Z,99.48
2017-04-18T04:10:11.244Z,99.1
2017-04-18T04:11:11.217Z,99.19
2017-04-18T04:12:11.189Z,99.1
2017-04-18T04:13:10.871Z,98.82
2017-04-18T04:14:11.149Z,99.57
2017-04-18T04:15:11.116Z,99.33
2017-04-18T04:16:11.084Z,99.05
2017-04-18T04:17:11.059Z,99.15
2017-04-18T04:18:11.037Z,99.81
2017-04-18T04:19:11.004Z,99.1
2017-04-18T04:20:10.982Z,99.29
2017-04-18T04:21:10.946Z,98.77
2017-04-18T04:22:10.926Z,98.91
2017-04-18T04:23:10.895Z,98.86
2017-04-18T04:24:10.875Z,99.1
2017-04-18T04:25:10.846Z,98.96
2017-04-18T04:26:10.815Z,98.96
2017-04-18T04:27:10.789Z,99.1
2017-04-18T04:28:10.766Z,98.72
2017-04-18T04:29:10.941Z,98.91
2017-04-18T04:30:10.709Z,98.96
2017-04-18T04:31:10.731Z,99.15
2017-04-18T04:32:10.651Z,98.68
2017-04-18T04:33:10.624Z,99.15
2017-04-18T04:34:10.601Z,98.86
2017-04-18T04:35:10.578Z,98.96
2017-04-18T04:36:10.600Z,98.68
2017-04-18T04:37:10.569Z,98.77
2017-04-18T04:38:10.500Z,99.24
2017-04-18T04:39:10.468Z,98.82
2017-04-18T04:40:10.437Z,99.43
2017-04-18T04:41:10.108Z,99.05
2017-04-18T04:42:10.387Z,99.01
2017-04-18T04:43:10.362Z,98.53
2017-04-18T04:44:10.331Z,99.19
2017-04-18T04:45:10.305Z,98.44
2017-04-18T04:46:10.327Z,98.96
2017-04-18T04:47:10.253Z,98.91
2017-04-18T04:48:10.231Z,98.72
2017-04-18T04:49:10.203Z,99.19
2017-04-18T04:50:10.170Z,98.72
2017-04-18T04:51:10.140Z,99.01
2017-04-18T04:52:10.117Z,99.19
2017-04-18T04:53:10.088Z,99.29
2017-04-18T04:54:10.062Z,99.1
2017-04-18T04:55:10.037Z,99.1
2017-04-18T04:56:10.012Z,98.91
2017-04-18T04:57:09.982Z,99.01
2017-04-18T04:58:09.960Z,99.1
2017-04-18T04:59:09.930Z,98.82
2017-04-18T05:00:09.907Z,99.01
2017-04-18T05:01:09.878Z,98.72
2017-04-18T05:02:09.848Z,99.15
2017-04-18T05:03:09.824Z,99.19
2017-04-18T05:04:09.795Z,99.05
2017-04-18T05:05:09.773Z,99.38
2017-04-18T05:06:09.750Z,99.81
2017-04-18T05:07:09.745Z,99.24
2017-04-18T05:08:09.690Z,99.05
2017-04-18T05:09:09.663Z,99.05
2017-04-18T05:10:10.237Z,98.68
2017-04-18T05:11:09.610Z,98.91
2017-04-18T05:12:09.583Z,99.15
2017-04-18T05:13:10.106Z,99.05
2017-04-18T05:14:09.531Z,98.96
2017-04-18T05:15:09.555Z,99.05
2017-04-18T05:16:09.180Z,99.05
2017-04-18T05:17:09.448Z,99.52
2017-04-18T05:18:09.421Z,99.15
2017-04-18T05:19:09.403Z,99.15
2017-04-18T05:20:09.373Z,99.05
2017-04-18T05:21:09.347Z,98.49
2017-04-18T05:22:09.368Z,98.96
2017-04-18T05:23:09.294Z,99.15
2017-04-18T05:24:09.274Z,98.86
2017-04-18T05:25:09.243Z,98.68
2017-04-18T05:26:08.906Z,98.86
2017-04-18T05:27:09.184Z,98.86
2017-04-18T05:28:09.203Z,98.77
2017-04-18T05:29:09.134Z,98.86
2017-04-18T05:30:09.105Z,99.24
2017-04-18T05:31:09.079Z,98.77
2017-04-18T05:32:08.753Z,99.15
2017-04-18T05:33:09.026Z,98.77
2017-04-18T05:34:09.298Z,99.24
2017-04-18T05:35:08.971Z,99.05
2017-04-18T05:36:08.950Z,98.49
2017-04-18T05:37:08.930Z,99.05
2017-04-18T05:38:08.901Z,98.68
2017-04-18T05:39:08.873Z,98.68
2017-04-18T05:40:08.846Z,98.68
2017-04-18T05:41:08.821Z,98.58
2017-04-18T05:42:08.792Z,98.39
2017-04-18T05:43:08.763Z,98.3
2017-04-18T05:44:08.739Z,98.77
2017-04-18T05:45:08.410Z,97.92
2017-04-18T05:46:08.679Z,97.82
2017-04-18T05:47:08.666Z,97.63
2017-04-18T05:48:08.635Z,98.01
2017-04-18T05:49:08.611Z,97.78
2017-04-18T05:50:08.580Z,97.73
2017-04-18T05:51:08.550Z,97.87
2017-04-18T05:52:08.524Z,97.97
2017-04-18T05:53:08.505Z,97.3
2017-04-18T05:54:08.481Z,98.06
2017-04-18T05:55:08.447Z,97.3
2017-04-18T05:56:08.423Z,97.4
2017-04-18T05:57:08.450Z,97.49
2017-04-18T05:58:08.371Z,97.49
2017-04-18T05:59:22.953Z,96.83
2017-04-18T06:00:08.318Z,96.92
2017-04-18T06:01:08.295Z,96.83
2017-04-18T06:02:08.266Z,97.3
2017-04-18T06:03:08.240Z,97.59
2017-04-18T06:04:08.213Z,97.97
2017-04-18T06:05:08.194Z,97.97
2017-04-18T06:06:08.161Z,97.64
2017-04-18T06:07:08.135Z,96.97
2017-04-18T06:08:08.111Z,96.17
2017-04-18T06:09:08.134Z,96.41
2017-04-18T06:10:08.064Z,94.89
2017-04-18T06:11:08.034Z,93.8
2017-04-18T06:12:08.019Z,92.47
2017-04-18T06:13:07.989Z,91.61
2017-04-18T06:14:07.963Z,90.71
2017-04-18T06:15:07.943Z,89.09
2017-04-18T06:16:07.918Z,86.91
2017-04-18T06:17:07.895Z,86.47
2017-04-18T06:18:07.876Z,86.19
2017-04-18T06:19:07.849Z,85.53
2017-04-18T06:20:07.843Z,84.95
2017-04-18T06:21:07.805Z,84.14
2017-04-18T06:22:07.783Z,83.29
2017-04-18T06:23:07.762Z,81.67
2017-04-18T06:24:07.744Z,81.24
2017-04-18T06:25:07.864Z,80
2017-04-18T06:26:07.512Z,79.72
2017-04-18T06:27:07.671Z,78.86
2017-04-18T06:28:07.651Z,78.29
2017-04-18T06:29:07.628Z,77.19
2017-04-18T06:30:07.605Z,75.09
2017-04-18T06:31:07.588Z,74.24
2017-04-18T06:32:07.559Z,73.19
2017-04-18T06:33:07.546Z,73.47
2017-04-18T06:34:07.518Z,72.94
2017-04-18T06:35:07.551Z,72.27
2017-04-18T06:36:07.478Z,71.89
2017-04-18T06:37:07.456Z,71.32
2017-04-18T06:38:07.487Z,70.65
2017-04-18T06:39:07.416Z,70.78
2017-04-18T06:40:07.650Z,69.54
2017-04-18T06:41:07.378Z,69.45
2017-04-18T06:42:07.362Z,68.88
2017-04-18T06:43:07.337Z,67.74
2017-04-18T06:44:07.314Z,67.35
2017-04-18T06:45:07.292Z,68.27
2017-04-18T06:46:07.322Z,67.8
2017-04-18T06:47:07.255Z,68.21
2017-04-18T06:48:07.284Z,68.12
2017-04-18T06:49:07.212Z,68.12
2017-04-18T06:50:07.191Z,68.21
2017-04-18T06:51:07.168Z,68.4
2017-04-18T06:52:07.197Z,68.02
2017-04-18T06:53:07.127Z,66.88
2017-04-18T06:54:07.104Z,65.73
2017-04-18T06:55:07.087Z,65.55
2017-04-18T06:56:07.065Z,65.2
2017-04-18T06:57:07.051Z,64.53
2017-04-18T06:58:07.027Z,64.43
2017-04-18T06:59:07.016Z,64.34
2017-04-18T07:00:06.988Z,63.67
2017-04-18T07:01:06.965Z,63.2
2017-04-18T07:02:06.995Z,63.29
2017-04-18T07:03:06.972Z,62.65
2017-04-18T07:04:06.908Z,62.75
2017-04-18T07:05:06.729Z,62.94
2017-04-18T07:06:06.870Z,63.04
2017-04-18T07:07:06.848Z,63.04
2017-04-18T07:08:06.829Z,62.75
2017-04-18T07:09:06.860Z,62.08
2017-04-18T07:10:06.794Z,61.89
2017-04-18T07:11:06.781Z,62.18
2017-04-18T07:12:06.809Z,62.46
2017-04-18T07:13:06.738Z,62.37
2017-04-18T07:14:06.718Z,62.08
2017-04-18T07:15:06.698Z,61.16
2017-04-18T07:16:06.674Z,59.73
2017-04-18T07:17:06.662Z,58.9
2017-04-18T07:18:06.650Z,58.87
2017-04-18T07:19:06.622Z,60.27
2017-04-18T07:20:06.604Z,61.57
2017-04-18T07:21:06.589Z,62.78
2017-04-18T07:22:06.558Z,64.5
2017-04-18T07:23:06.547Z,65.03
2017-04-18T07:24:06.524Z,66.14
2017-04-18T07:25:06.501Z,67.1
2017-04-18T07:26:06.476Z,68.21
2017-04-18T07:27:06.457Z,68.3
2017-04-18T07:28:06.447Z,69.06
2017-04-18T07:29:06.117Z,69.63
2017-04-18T07:30:06.398Z,69.82
2017-04-18T07:31:06.379Z,70.01
2017-04-18T07:32:06.358Z,70.77
2017-04-18T07:33:06.379Z,70.58
2017-04-18T07:34:06.308Z,70.97
2017-04-18T07:35:06.291Z,70.3
2017-04-18T07:36:06.318Z,69.67
2017-04-18T07:37:06.259Z,69.51
2017-04-18T07:38:06.224Z,69.04
2017-04-18T07:39:06.217Z,67.16
2017-04-18T07:40:06.183Z,66.63
2017-04-18T07:41:05.863Z,65.96
2017-04-18T07:42:06.141Z,65.83
2017-04-18T07:43:06.121Z,66.02
2017-04-18T07:44:06.101Z,66.5
2017-04-18T07:45:06.082Z,66.56
2017-04-18T07:46:06.068Z,66.56
2017-04-18T07:47:06.042Z,67
2017-04-18T07:49:05.996Z,68.96
2017-04-18T07:50:05.976Z,69.06
2017-04-18T07:51:05.965Z,70.2
2017-04-18T07:52:05.934Z,71.22
2017-04-18T07:53:05.914Z,71.02
2017-04-18T07:54:05.898Z,71.22
2017-04-18T07:55:05.863Z,71.69
2017-04-18T07:56:05.851Z,72.64
2017-04-18T07:57:05.824Z,72.45
2017-04-18T07:58:05.803Z,72.83
2017-04-18T07:59:05.778Z,72.92
2017-04-18T08:00:05.758Z,73.21
2017-04-18T08:01:05.774Z,73.02
2017-04-18T08:02:05.715Z,72.99
2017-04-18T08:03:05.690Z,72.89
2017-04-18T08:04:05.671Z,72.7
2017-04-18T08:05:05.656Z,73.08
2017-04-18T08:06:05.625Z,72.79
2017-04-18T08:07:05.607Z,73.18
2017-04-18T08:08:05.581Z,72.92
2017-04-18T08:09:05.560Z,73.21
2017-04-18T08:10:05.544Z,72.64
2017-04-18T08:11:05.519Z,71.97
2017-04-18T08:12:05.497Z,71.78
2017-04-18T08:13:05.624Z,72.64
2017-04-18T08:14:05.449Z,72.45
2017-04-18T08:15:05.428Z,72.35
2017-04-18T08:16:05.409Z,72.35
2017-04-18T08:17:05.377Z,72.32
2017-04-18T08:18:05.410Z,72.7
2017-04-18T08:19:05.339Z,72.89
2017-04-18T08:20:05.319Z,72.89
2017-04-18T08:21:05.288Z,73.46
2017-04-18T08:22:05.568Z,73.65
2017-04-18T08:23:05.248Z,74.12
2017-04-18T08:24:05.223Z,73.65
2017-04-18T08:25:05.201Z,73.65
2017-04-18T08:26:05.192Z,73.36
2017-04-18T08:27:05.154Z,74.27
2017-04-18T08:28:05.134Z,74.18
2017-04-18T08:29:05.134Z,74.69
2017-04-18T08:30:05.086Z,74.88
2017-04-18T08:31:05.067Z,74.41
2017-04-18T08:32:05.043Z,74.69
2017-04-18T08:33:05.020Z,74.6
2017-04-18T08:34:04.993Z,74.03
2017-04-18T08:35:05.022Z,73.93
2017-04-18T08:36:04.951Z,73.93
2017-04-18T08:37:04.930Z,73.36
2017-04-18T08:38:04.904Z,73.18
2017-04-18T08:39:04.883Z,73.84
2017-04-18T08:40:04.857Z,74.03
2017-04-18T08:41:04.837Z,72.99
2017-04-18T08:42:04.873Z,72.6
2017-04-18T08:43:04.788Z,72.99
2017-04-18T08:44:04.769Z,72.66
2017-04-18T08:45:04.751Z,73.23
2017-04-18T08:46:04.726Z,73.52
2017-04-18T08:47:04.706Z,74.08
2017-04-18T08:48:04.683Z,73.61
2017-04-18T08:49:04.662Z,74.18
2017-04-18T08:50:04.639Z,74.47
2017-04-18T08:51:04.604Z,73.9
2017-04-18T08:52:04.637Z,74.66
2017-04-18T08:53:04.560Z,74.66
2017-04-18T08:54:04.535Z,74.94
2017-04-18T08:55:04.512Z,74.66
2017-04-18T08:56:04.238Z,75.04
2017-04-18T08:57:04.461Z,74.85
2017-04-18T08:58:04.442Z,75.04
2017-04-18T08:59:04.416Z,75.42
2017-04-18T09:00:04.398Z,75.32
2017-04-18T09:01:04.378Z,75.99
2017-04-18T09:02:04.354Z,75.85
2017-04-18T09:03:18.937Z,76.71
2017-04-18T09:04:04.313Z,76.9
2017-04-18T09:05:04.276Z,76.61
2017-04-18T09:06:04.254Z,76.71
2017-04-18T09:07:04.237Z,76.9
2017-04-18T09:08:04.212Z,77.18
2017-04-18T09:09:04.193Z,77.47
2017-04-18T09:10:04.165Z,78.03
2017-04-18T09:11:04.137Z,79.27
2017-04-18T09:12:03.808Z,80.69
2017-04-18T09:13:04.105Z,81.93
2017-04-18T09:14:04.282Z,83.45
2017-04-18T09:15:04.041Z,83.83
2017-04-18T09:16:04.021Z,84.26
2017-04-18T09:17:03.994Z,85.3
2017-04-18T09:18:04.870Z,84.92
2017-04-18T09:19:03.963Z,85.02
2017-04-18T09:20:03.931Z,85.49
2017-04-18T09:21:03.896Z,85.59
2017-04-18T09:22:03.930Z,85.97
2017-04-18T09:23:03.858Z,85.59
2017-04-18T09:24:03.832Z,85.4
2017-04-18T09:25:03.851Z,85.53
2017-04-18T09:26:03.778Z,85.16
2017-04-18T09:27:03.757Z,84.87
2017-04-18T09:28:03.743Z,84.06
2017-04-18T09:29:03.710Z,82.01
2017-04-18T09:30:03.683Z,80.44
2017-04-18T09:31:03.663Z,78.91
2017-04-18T09:32:03.900Z,78.91
2017-04-18T09:33:03.318Z,76.57
2017-04-18T09:34:03.598Z,75.91
2017-04-18T09:35:03.798Z,75.15
2017-04-18T09:36:03.551Z,74.77
2017-04-18T09:37:03.527Z,74.52
2017-04-18T09:38:03.501Z,73
2017-04-18T09:39:03.500Z,72.08
2017-04-18T09:40:03.477Z,70.75
2017-04-18T09:41:03.441Z,70.72
2017-04-18T09:42:03.433Z,70.68
2017-04-18T09:43:03.406Z,71.25
2017-04-18T09:44:03.074Z,72.67
2017-04-18T09:45:03.358Z,72.64
2017-04-18T09:46:03.032Z,73.59
2017-04-18T09:47:03.308Z,73.21
2017-04-18T09:48:04.787Z,73.59
2017-04-18T09:49:03.263Z,74.35
2017-04-18T09:50:03.247Z,73.97
2017-04-18T09:51:02.924Z,73.44
2017-04-18T09:52:03.203Z,72.42
2017-04-18T09:53:03.180Z,70.56
2017-04-18T09:54:03.165Z,68.3
2017-04-18T09:55:03.139Z,68.02
2017-04-18T09:56:03.119Z,67.29
2017-04-18T09:57:03.102Z,64.09
2017-04-18T09:58:03.077Z,63.6
2017-04-18T09:59:03.104Z,63
2017-04-18T10:00:03.031Z,63.17
2017-04-18T10:01:03.009Z,63.42
2017-04-18T10:02:03.042Z,63.89
2017-04-18T10:03:02.976Z,64.65
2017-04-18T10:04:02.951Z,65.19
2017-04-18T10:05:02.935Z,64.47
2017-04-18T10:06:02.919Z,63.45
2017-04-18T10:07:02.896Z,63.07
2017-04-18T10:08:02.870Z,62.65
2017-04-18T10:09:02.855Z,63.51
2017-04-18T10:10:02.831Z,63.96
2017-04-18T10:11:02.809Z,64.24
2017-04-18T10:12:02.789Z,65.58
2017-04-18T10:13:02.769Z,65.73
2017-04-18T10:14:02.749Z,66.68
2017-04-18T10:15:02.727Z,66.78
2017-04-18T10:16:02.702Z,65.38
2017-04-18T10:17:03.588Z,65.1
2017-04-18T10:18:02.662Z,65.38
2017-04-18T10:19:02.641Z,66.11
2017-04-18T10:20:02.618Z,66.68
2017-04-18T10:21:02.601Z,65.48
2017-04-18T10:22:02.583Z,64.47
2017-04-18T10:23:02.555Z,63.04
2017-04-18T10:24:02.536Z,61.16
2017-04-18T10:25:02.517Z,60.14
2017-04-18T10:26:02.492Z,58.24
2017-04-18T10:27:02.180Z,58.72
2017-04-18T10:28:02.454Z,57.19
2017-04-18T10:29:02.447Z,57.38
2017-04-18T10:30:02.417Z,58.5
2017-04-18T10:31:02.398Z,60.46
2017-04-18T10:32:02.379Z,61.22
2017-04-18T10:33:02.406Z,62.53
2017-04-18T10:34:02.342Z,62.72
2017-04-18T10:35:02.314Z,62.62
2017-04-18T10:36:02.296Z,63.35
2017-04-18T10:37:02.275Z,63.64
2017-04-18T10:38:02.252Z,64.11
2017-04-18T10:39:02.231Z,64.21
2017-04-18T10:40:02.210Z,64.87
2017-04-18T10:41:01.889Z,65.22
2017-04-18T10:42:01.861Z,65.73
2017-04-18T10:43:02.225Z,66.49
2017-04-18T10:44:02.128Z,67.07
2017-04-18T10:45:02.102Z,66.74
2017-04-18T10:46:02.081Z,66.49
2017-04-18T10:47:02.057Z,66.2
2017-04-18T10:48:02.038Z,65.16
2017-04-18T10:49:03.969Z,64.5
2017-04-18T10:50:03.454Z,64.5
2017-04-18T10:51:01.968Z,64.69
2017-04-18T10:52:01.952Z,64.69
2017-04-18T10:53:01.627Z,64.59
2017-04-18T10:54:01.909Z,64.97
2017-04-18T10:55:01.881Z,64.78
2017-04-18T10:56:01.860Z,65.83
2017-04-18T10:57:01.852Z,66.08
2017-04-18T10:58:01.828Z,66.65
2017-04-18T10:59:01.795Z,66.46
2017-04-18T11:00:01.772Z,66.65
2017-04-18T11:01:01.748Z,66.65
2017-04-18T11:02:01.725Z,66.97
2017-04-18T11:03:01.706Z,66.87
2017-04-18T11:04:01.709Z,66.2
2017-04-18T11:05:01.665Z,65.92
2017-04-18T11:06:01.644Z,65.16
2017-04-18T11:07:01.613Z,65.16
2017-04-18T11:08:01.591Z,65.06
2017-04-18T11:09:01.570Z,64.31
2017-04-18T11:10:01.555Z,64.31
2017-04-18T11:11:01.526Z,64.78
2017-04-18T11:12:01.513Z,64.02
2017-04-18T11:13:01.479Z,63.83
2017-04-18T11:14:01.484Z,64.02
2017-04-18T11:15:01.439Z,64.31
2017-04-18T11:16:01.421Z,64.59
2017-04-18T11:17:01.611Z,64.5
2017-04-18T11:18:01.367Z,64.5
2017-04-18T11:19:01.061Z,64.97
2017-04-18T11:20:01.329Z,65.32
2017-04-18T11:21:01.305Z,65.32
2017-04-18T11:22:01.289Z,65.6
2017-04-18T11:23:01.254Z,65.8
2017-04-18T11:24:01.237Z,66.08
2017-04-18T11:25:01.232Z,67.09
2017-04-18T11:26:01.192Z,67.38
2017-04-18T11:27:01.174Z,68.13
2017-04-18T11:28:01.149Z,68.52
2017-04-18T11:29:01.128Z,69.37
2017-04-18T11:30:01.146Z,69.75
2017-04-18T11:31:01.082Z,70.42
2017-04-18T11:32:01.074Z,72.6
2017-04-18T11:33:01.040Z,73.36
2017-04-18T11:34:01.174Z,74.47
2017-04-18T11:35:00.982Z,74.94
2017-04-18T11:36:00.964Z,76.18
2017-04-18T11:37:00.940Z,77.31
2017-04-18T11:38:00.914Z,78.74
2017-04-18T11:39:00.889Z,80.32
2017-04-18T11:40:00.863Z,80.98
2017-04-18T11:41:00.893Z,82.31
2017-04-18T11:42:00.818Z,82.5
2017-04-18T11:43:00.799Z,83.16
2017-04-18T11:44:00.523Z,84.11
2017-04-18T11:45:00.757Z,83.92
2017-04-18T11:46:01.486Z,83.73
2017-04-18T11:47:00.702Z,84.4
2017-04-18T11:48:00.678Z,84.21
2017-04-18T11:49:00.655Z,84.3
2017-04-18T11:50:00.628Z,84.97
2017-04-18T11:51:00.607Z,85.01
2017-04-18T11:52:00.582Z,85.39
2017-04-18T11:53:00.556Z,84.25
2017-04-18T11:54:00.531Z,83.87
2017-04-18T11:55:00.532Z,83.01
2017-04-18T11:56:00.491Z,81.97
2017-04-18T11:57:00.465Z,81.49
2017-04-18T11:58:00.441Z,80.87
2017-04-18T11:59:00.470Z,80.77
2017-04-18T12:00:00.393Z,79.83
2017-04-18T12:01:00.369Z,79.83
2017-04-18T12:02:00.344Z,79.16
2017-04-18T12:03:00.333Z,78.5
2017-04-18T12:04:00.304Z,77.92
2017-04-18T12:05:00.280Z,77.26
2017-04-18T12:06:00.258Z,77.64
2017-04-18T12:07:00.236Z,76.88
2017-04-18T12:08:00.217Z,76.97
2017-04-18T12:09:00.301Z,76.69
2017-04-18T12:10:00.162Z,76.21
2017-04-18T12:11:01.995Z,75.64
2017-04-18T12:12:00.122Z,75.55
2017-04-18T12:13:00.095Z,76.03
2017-04-18T12:14:00.076Z,75.84
2017-04-18T12:15:00.050Z,75.45
2017-04-18T12:16:00.026Z,75.93
2017-04-18T12:17:00.003Z,74.79
2017-04-18T12:17:59.981Z,75.17
2017-04-18T12:18:59.958Z,74.98
2017-04-18T12:19:59.986Z,75.36
2017-04-18T12:20:59.909Z,75.36
2017-04-18T12:21:59.884Z,76.4
2017-04-18T12:22:59.862Z,77.17
2017-04-18T12:23:59.845Z,77.64
2017-04-18T12:24:59.829Z,78.93
2017-04-18T12:25:59.803Z,79.03
2017-04-18T12:26:59.772Z,79.74
2017-04-18T12:27:59.752Z,81.93
2017-04-18T12:28:59.727Z,83.31
2017-04-18T12:29:59.703Z,84.74
2017-04-18T12:30:59.679Z,85.4
2017-04-18T12:31:59.653Z,86.87
2017-04-18T12:32:59.630Z,87.54
2017-04-18T12:33:59.602Z,87.92
2017-04-18T12:34:59.581Z,89.34
2017-04-18T12:35:59.558Z,89.62
2017-04-18T12:36:59.531Z,90.1
2017-04-18T12:37:59.506Z,90.76
2017-04-18T12:38:59.486Z,91.24
2017-04-18T12:39:59.458Z,90.95
2017-04-18T12:40:59.429Z,91.14
2017-04-18T12:41:59.422Z,91.52
2017-04-18T12:42:59.382Z,91.52
2017-04-18T12:43:59.356Z,91.8
2017-04-18T12:44:59.341Z,92.18
2017-04-18T12:45:59.316Z,92.52
2017-04-18T12:46:59.292Z,92.61
2017-04-18T12:47:59.265Z,93.18
2017-04-18T12:48:59.236Z,93.27
2017-04-18T12:49:59.224Z,94.23
2017-04-18T12:51:00.335Z,95.03
2017-04-18T12:51:59.164Z,95.55
2017-04-18T12:52:59.138Z,95.65
2017-04-18T12:53:59.121Z,96.07
2017-04-18T12:54:59.086Z,96.55
2017-04-18T12:55:59.116Z,96.26
2017-04-18T12:56:59.036Z,97.3